sensor_id;sensor_type;location;lat;lon;timestamp;temperature;humidity
9095;DHT22;4583;49.796;9.902;2023-04-25T00:05:41;11.70;92.20
9095;DHT22;4583;49.796;9.902;2023-04-25T00:15:43;11.60;92.20
9095;DHT22;4583;49.796;9.902;2023-04-25T00:25:48;11.60;92.40
9095;DHT22;4583;49.796;9.902;2023-04-25T00:38:46;11.50;92.20
9095;DHT22;4583;49.796;9.902;2023-04-25T00:48:47;11.50;92.50
9095;DHT22;4583;49.796;9.902;2023-04-25T00:58:50;11.40;92.40
9095;DHT22;4583;49.796;9.902;2023-04-25T01:08:54;11.40;92.60
9095;DHT22;4583;49.796;9.902;2023-04-25T01:18:56;11.40;92.40
9095;DHT22;4583;49.796;9.902;2023-04-25T01:28:58;11.20;92.80
9095;DHT22;4583;49.796;9.902;2023-04-25T01:39:00;10.90;93.70
9095;DHT22;4583;49.796;9.902;2023-04-25T01:49:02;10.90;93.70
9095;DHT22;4583;49.796;9.902;2023-04-25T01:59:04;10.80;94.00
9095;DHT22;4583;49.796;9.902;2023-04-25T02:09:06;10.80;94.10
9095;DHT22;4583;49.796;9.902;2023-04-25T02:19:08;10.70;94.40
9095;DHT22;4583;49.796;9.902;2023-04-25T02:29:11;10.70;94.60
9095;DHT22;4583;49.796;9.902;2023-04-25T02:39:13;10.50;95.00
9095;DHT22;4583;49.796;9.902;2023-04-25T02:49:15;10.40;95.00
9095;DHT22;4583;49.796;9.902;2023-04-25T02:59:16;10.40;95.40
9095;DHT22;4583;49.796;9.902;2023-04-25T03:09:18;10.40;95.20
9095;DHT22;4583;49.796;9.902;2023-04-25T03:19:20;10.30;95.20
9095;DHT22;4583;49.796;9.902;2023-04-25T03:29:22;10.30;95.20
9095;DHT22;4583;49.796;9.902;2023-04-25T03:39:26;10.30;95.20
9095;DHT22;4583;49.796;9.902;2023-04-25T03:49:27;10.10;95.50
9095;DHT22;4583;49.796;9.902;2023-04-25T03:59:29;10.20;95.80
9095;DHT22;4583;49.796;9.902;2023-04-25T04:09:31;10.20;95.90
9095;DHT22;4583;49.796;9.902;2023-04-25T04:19:32;10.10;95.70
9095;DHT22;4583;49.796;9.902;2023-04-25T04:29:34;10.10;95.90
9095;DHT22;4583;49.796;9.902;2023-04-25T04:39:36;10.10;95.90
9095;DHT22;4583;49.796;9.902;2023-04-25T04:49:38;10.20;95.90
9095;DHT22;4583;49.796;9.902;2023-04-25T04:59:40;10.20;95.90
9095;DHT22;4583;49.796;9.902;2023-04-25T05:09:41;10.20;96.20
9095;DHT22;4583;49.796;9.902;2023-04-25T05:19:43;10.20;96.30
9095;DHT22;4583;49.796;9.902;2023-04-25T05:29:45;10.20;96.50
9095;DHT22;4583;49.796;9.902;2023-04-25T05:39:47;10.30;96.20
9095;DHT22;4583;49.796;9.902;2023-04-25T05:49:49;10.50;96.10
9095;DHT22;4583;49.796;9.902;2023-04-25T05:59:51;10.40;96.60
9095;DHT22;4583;49.796;9.902;2023-04-25T06:09:53;10.60;95.80
9095;DHT22;4583;49.796;9.902;2023-04-25T06:19:55;10.60;95.20
9095;DHT22;4583;49.796;9.902;2023-04-25T06:29:56;10.50;95.20
9095;DHT22;4583;49.796;9.902;2023-04-25T06:39:58;10.50;95.40
9095;DHT22;4583;49.796;9.902;2023-04-25T06:49:59;10.60;93.70
9095;DHT22;4583;49.796;9.902;2023-04-25T07:00:01;10.60;92.70
9095;DHT22;4583;49.796;9.902;2023-04-25T07:10:06;10.60;92.90
9095;DHT22;4583;49.796;9.902;2023-04-25T07:20:09;10.60;91.90
9095;DHT22;4583;49.796;9.902;2023-04-25T07:30:11;10.40;91.50
9095;DHT22;4583;49.796;9.902;2023-04-25T07:40:13;10.40;91.50
9095;DHT22;4583;49.796;9.902;2023-04-25T07:50:17;10.40;91.70
9095;DHT22;4583;49.796;9.902;2023-04-25T08:00:19;10.90;90.60
9095;DHT22;4583;49.796;9.902;2023-04-25T08:10:21;11.20;89.50
9095;DHT22;4583;49.796;9.902;2023-04-25T08:20:24;11.30;80.90
9095;DHT22;4583;49.796;9.902;2023-04-25T08:30:26;11.30;78.20
9095;DHT22;4583;49.796;9.902;2023-04-25T08:40:28;11.30;78.00
9095;DHT22;4583;49.796;9.902;2023-04-25T08:50:31;11.30;73.20
9095;DHT22;4583;49.796;9.902;2023-04-25T09:00:33;12.00;70.10
9095;DHT22;4583;49.796;9.902;2023-04-25T09:10:35;12.20;69.80
9095;DHT22;4583;49.796;9.902;2023-04-25T09:20:42;12.40;70.40
9095;DHT22;4583;49.796;9.902;2023-04-25T09:31:01;12.90;65.20
9095;DHT22;4583;49.796;9.902;2023-04-25T09:41:03;12.90;65.40
9095;DHT22;4583;49.796;9.902;2023-04-25T09:51:09;12.80;65.30
9095;DHT22;4583;49.796;9.902;2023-04-25T10:01:11;13.10;65.20
9095;DHT22;4583;49.796;9.902;2023-04-25T10:11:14;13.20;65.60
9095;DHT22;4583;49.796;9.902;2023-04-25T10:21:17;13.40;62.70
9095;DHT22;4583;49.796;9.902;2023-04-25T10:31:19;13.50;62.50
9095;DHT22;4583;49.796;9.902;2023-04-25T10:41:21;13.60;60.30
9095;DHT22;4583;49.796;9.902;2023-04-25T10:51:26;13.70;60.00
9095;DHT22;4583;49.796;9.902;2023-04-25T11:01:37;13.60;58.40
9095;DHT22;4583;49.796;9.902;2023-04-25T11:11:40;13.40;57.80
9095;DHT22;4583;49.796;9.902;2023-04-25T11:21:41;13.40;58.40
9095;DHT22;4583;49.796;9.902;2023-04-25T11:31:44;13.00;58.20
9095;DHT22;4583;49.796;9.902;2023-04-25T11:41:47;13.00;58.60
9095;DHT22;4583;49.796;9.902;2023-04-25T11:51:49;13.00;57.80
9095;DHT22;4583;49.796;9.902;2023-04-25T12:01:51;13.20;57.20
9095;DHT22;4583;49.796;9.902;2023-04-25T12:11:57;13.20;57.20
9095;DHT22;4583;49.796;9.902;2023-04-25T12:22:01;13.20;56.80
9095;DHT22;4583;49.796;9.902;2023-04-25T12:32:03;12.80;56.90
9095;DHT22;4583;49.796;9.902;2023-04-25T12:42:04;12.80;57.50
9095;DHT22;4583;49.796;9.902;2023-04-25T12:52:09;12.80;58.70
9095;DHT22;4583;49.796;9.902;2023-04-25T13:02:11;12.90;59.70
9095;DHT22;4583;49.796;9.902;2023-04-25T13:12:14;13.30;59.40
9095;DHT22;4583;49.796;9.902;2023-04-25T13:22:16;12.80;59.40
9095;DHT22;4583;49.796;9.902;2023-04-25T13:32:18;12.50;61.00
9095;DHT22;4583;49.796;9.902;2023-04-25T13:42:20;12.30;61.50
9095;DHT22;4583;49.796;9.902;2023-04-25T13:52:22;13.60;59.40
9095;DHT22;4583;49.796;9.902;2023-04-25T14:02:25;13.90;57.50
9095;DHT22;4583;49.796;9.902;2023-04-25T14:12:27;14.50;59.10
9095;DHT22;4583;49.796;9.902;2023-04-25T14:22:29;13.90;57.10
9095;DHT22;4583;49.796;9.902;2023-04-25T14:32:30;13.80;55.00
9095;DHT22;4583;49.796;9.902;2023-04-25T14:42:33;13.80;55.40
9095;DHT22;4583;49.796;9.902;2023-04-25T14:52:35;13.00;55.20
9095;DHT22;4583;49.796;9.902;2023-04-25T15:02:37;12.90;55.10
9095;DHT22;4583;49.796;9.902;2023-04-25T15:12:40;12.80;55.20
9095;DHT22;4583;49.796;9.902;2023-04-25T15:22:42;12.80;55.70
9095;DHT22;4583;49.796;9.902;2023-04-25T15:32:45;14.10;53.90
9095;DHT22;4583;49.796;9.902;2023-04-25T15:42:49;14.50;51.50
9095;DHT22;4583;49.796;9.902;2023-04-25T15:52:54;14.10;51.50
9095;DHT22;4583;49.796;9.902;2023-04-25T16:02:56;14.10;52.30
9095;DHT22;4583;49.796;9.902;2023-04-25T16:12:58;13.80;51.90
9095;DHT22;4583;49.796;9.902;2023-04-25T16:23:00;13.50;50.80
9095;DHT22;4583;49.796;9.902;2023-04-25T16:33:02;13.00;52.00
9095;DHT22;4583;49.796;9.902;2023-04-25T16:43:04;12.90;52.90
9095;DHT22;4583;49.796;9.902;2023-04-25T16:53:05;13.10;52.80
9095;DHT22;4583;49.796;9.902;2023-04-25T17:03:07;12.70;53.80
9095;DHT22;4583;49.796;9.902;2023-04-25T17:13:09;12.10;54.30
9095;DHT22;4583;49.796;9.902;2023-04-25T17:23:11;12.10;54.70
9095;DHT22;4583;49.796;9.902;2023-04-25T17:33:13;12.00;55.10
9095;DHT22;4583;49.796;9.902;2023-04-25T17:43:14;11.90;55.70
9095;DHT22;4583;49.796;9.902;2023-04-25T17:53:16;11.60;56.00
9095;DHT22;4583;49.796;9.902;2023-04-25T18:03:18;11.80;56.30
9095;DHT22;4583;49.796;9.902;2023-04-25T18:13:20;11.80;56.70
9095;DHT22;4583;49.796;9.902;2023-04-25T18:23:22;11.60;57.40
9095;DHT22;4583;49.796;9.902;2023-04-25T18:33:23;11.60;57.50
9095;DHT22;4583;49.796;9.902;2023-04-25T18:43:25;11.40;58.20
9095;DHT22;4583;49.796;9.902;2023-04-25T18:53:27;11.40;58.70
9095;DHT22;4583;49.796;9.902;2023-04-25T19:03:29;11.20;59.50
9095;DHT22;4583;49.796;9.902;2023-04-25T19:13:32;11.10;59.50
9095;DHT22;4583;49.796;9.902;2023-04-25T19:23:35;10.90;60.30
9095;DHT22;4583;49.796;9.902;2023-04-25T19:33:37;10.90;60.40
9095;DHT22;4583;49.796;9.902;2023-04-25T19:43:38;10.80;60.30
9095;DHT22;4583;49.796;9.902;2023-04-25T19:53:40;10.70;60.60
9095;DHT22;4583;49.796;9.902;2023-04-25T20:03:42;10.40;60.80
9095;DHT22;4583;49.796;9.902;2023-04-25T20:13:44;10.30;61.00
9095;DHT22;4583;49.796;9.902;2023-04-25T20:23:46;10.30;61.70
9095;DHT22;4583;49.796;9.902;2023-04-25T20:33:48;10.20;62.30
9095;DHT22;4583;49.796;9.902;2023-04-25T20:49:50;9.90;63.90
9095;DHT22;4583;49.796;9.902;2023-04-25T20:59:52;9.70;64.40
9095;DHT22;4583;49.796;9.902;2023-04-25T21:09:54;9.50;64.40
9095;DHT22;4583;49.796;9.902;2023-04-25T21:19:56;9.30;65.10
9095;DHT22;4583;49.796;9.902;2023-04-25T21:29:57;9.20;65.90
9095;DHT22;4583;49.796;9.902;2023-04-25T21:39:59;9.10;66.40
9095;DHT22;4583;49.796;9.902;2023-04-25T21:50:01;8.90;66.50
9095;DHT22;4583;49.796;9.902;2023-04-25T22:10:06;8.90;67.20
9095;DHT22;4583;49.796;9.902;2023-04-25T23:00:21;8.00;69.70
9095;DHT22;4583;49.796;9.902;2023-04-25T23:10:27;8.00;70.30
9095;DHT22;4583;49.796;9.902;2023-04-25T23:20:29;7.90;70.80
9095;DHT22;4583;49.796;9.902;2023-04-25T23:30:32;7.70;71.30
9095;DHT22;4583;49.796;9.902;2023-04-25T23:40:34;7.40;72.20
9095;DHT22;4583;49.796;9.902;2023-04-25T23:50:36;7.40;72.80
